Time;durP1;ratioP1;P1;durP2;ratioP2;P2;SDS_P1;SDS_P2;PMS_P1;PMS_P2;Temp;Humidity;BMP_temperature;BMP_pressure;BME280_temperature;BME280_humidity;BME280_pressure;Samples;Min_cycle;Max_cycle;Signal;HPM_P1;HPM_P2
2022/04/20 04:02:14;;;;;;;5.40;4.97;;;7.30;95.70;;;;;;5133643;23;20502;-69
2022/04/20 04:04:40;;;;;;;6.10;5.20;;;7.20;95.90;;;;;;4975609;28;20453;-70
2022/04/20 04:07:07;;;;;;;5.40;4.90;;;7.20;96.20;;;;;;4975671;28;20447;-69
2022/04/20 04:09:34;;;;;;;5.40;4.90;;;7.20;96.20;;;;;;4975811;28;20513;-69
2022/04/20 04:12:01;;;;;;;4.80;4.50;;;7.20;96.70;;;;;;4975529;28;20986;-69
2022/04/20 04:14:28;;;;;;;4.60;4.30;;;7.20;96.70;;;;;;4975405;28;20501;-69
2022/04/20 04:16:55;;;;;;;5.17;4.80;;;7.20;96.70;;;;;;4975776;28;20513;-70
2022/04/20 04:19:24;;;;;;;6.20;4.40;;;7.20;97.20;;;;;;4975530;28;20455;-69
2022/04/20 04:21:52;;;;;;;4.63;4.23;;;7.20;97.60;;;;;;4975562;28;20475;-69
2022/04/20 04:24:36;;;;;;;4.70;4.30;;;7.10;97.70;;;;;;4975352;28;20455;-69
2022/04/20 04:27:05;;;;;;;5.63;5.23;;;7.10;98.10;;;;;;4975568;28;20482;-68
2022/04/20 04:29:32;;;;;;;5.00;4.70;;;6.90;98.40;;;;;;4975598;28;20545;-69
2022/04/20 04:31:59;;;;;;;5.50;4.97;;;6.90;99.50;;;;;;4975284;28;20511;-70
2022/04/20 04:34:28;;;;;;;5.13;4.60;;;6.80;99.40;;;;;;4975301;28;20466;-69
2022/04/20 04:36:55;;;;;;;6.13;4.83;;;6.80;99.80;;;;;;4975511;28;20466;-69
2022/04/20 04:39:22;;;;;;;5.83;4.60;;;6.60;99.80;;;;;;4975628;28;20505;-70
2022/04/20 04:41:49;;;;;;;5.37;5.00;;;6.40;99.90;;;;;;4975232;28;20475;-69
2022/04/20 04:44:17;;;;;;;4.47;4.07;;;6.40;99.90;;;;;;4975270;28;20454;-69
2022/04/20 04:49:29;;;;;;;5.87;5.37;;;6.30;99.90;;;;;;4975225;28;20426;-69
2022/04/20 04:51:56;;;;;;;5.73;5.20;;;6.20;99.90;;;;;;4975152;28;20537;-70
2022/04/20 04:54:23;;;;;;;5.43;4.90;;;6.10;99.90;;;;;;4975082;28;20551;-69
2022/04/20 04:56:50;;;;;;;7.23;5.10;;;6.10;99.90;;;;;;4975076;28;20461;-71
2022/04/20 04:59:17;;;;;;;5.30;4.93;;;6.00;99.90;;;;;;4975934;28;20462;-69
2022/04/20 05:01:44;;;;;;;5.20;4.83;;;5.90;99.90;;;;;;4975152;28;20490;-70
2022/04/20 05:04:11;;;;;;;6.30;5.73;;;5.80;99.90;;;;;;4975215;28;20454;-70
2022/04/20 05:06:41;;;;;;;6.57;5.80;;;5.70;99.90;;;;;;4974823;28;20494;-69
2022/04/20 05:09:08;;;;;;;5.40;4.90;;;5.70;99.90;;;;;;4974672;28;20445;-69
2022/04/20 05:11:35;;;;;;;6.10;5.50;;;5.80;99.90;;;;;;4974982;28;20986;-71
2022/04/20 05:14:02;;;;;;;5.50;5.10;;;5.80;99.90;;;;;;4975942;28;20459;-70
2022/04/20 05:16:29;;;;;;;5.80;5.27;;;5.90;99.90;;;;;;4975601;28;20512;-68
2022/04/20 05:18:56;;;;;;;6.60;5.60;;;6.00;99.90;;;;;;4975574;28;20522;-69
2022/04/20 05:21:23;;;;;;;6.33;5.83;;;6.10;99.90;;;;;;4992284;28;20475;-71
2022/04/20 05:23:51;;;;;;;6.37;5.77;;;6.10;99.90;;;;;;4980436;28;20455;-69
2022/04/20 05:26:18;;;;;;;6.93;5.43;;;6.20;99.90;;;;;;4978024;28;20450;-69
2022/04/20 05:28:44;;;;;;;6.10;5.60;;;6.30;99.90;;;;;;4978694;28;20950;-68
2022/04/20 05:31:11;;;;;;;6.83;6.30;;;6.40;99.90;;;;;;4978160;28;20489;-69
2022/04/20 05:33:38;;;;;;;5.77;5.37;;;6.50;99.90;;;;;;4982117;28;20461;-68
2022/04/20 05:36:05;;;;;;;5.53;5.03;;;6.60;99.90;;;;;;4981622;28;20470;-69
2022/04/20 05:44:01;;;;;;;5.80;5.30;;;7.30;99.90;;;;;;4978290;28;20820;-69
2022/04/20 05:46:28;;;;;;;7.23;6.00;;;7.70;99.90;;;;;;4978483;28;20450;-69
2022/04/20 05:48:54;;;;;;;6.80;5.57;;;8.00;99.90;;;;;;4978317;28;20466;-69
2022/04/20 05:51:21;;;;;;;6.70;5.97;;;8.40;99.90;;;;;;4978238;28;20471;-68
2022/04/20 05:53:48;;;;;;;6.10;5.50;;;8.80;99.90;;;;;;4977710;28;20945;-68
2022/04/20 05:56:15;;;;;;;6.77;5.13;;;9.00;99.90;;;;;;4977800;28;20848;-68
2022/04/20 05:58:44;;;;;;;8.90;5.97;;;9.40;99.30;;;;;;4978057;28;20458;-69
2022/04/20 06:01:11;;;;;;;5.60;5.10;;;9.60;97.80;;;;;;4977506;28;20486;-68
2022/04/20 06:03:38;;;;;;;5.57;5.17;;;10.10;95.70;;;;;;4977738;28;20803;-68
2022/04/20 06:06:05;;;;;;;7.77;6.30;;;10.40;94.10;;;;;;4977610;28;20458;-70
2022/04/20 06:08:31;;;;;;;6.20;5.40;;;10.80;93.90;;;;;;4978037;28;20458;-68
2022/04/20 06:10:58;;;;;;;5.13;4.73;;;11.10;92.20;;;;;;4977575;28;20486;-69
2022/04/20 06:13:25;;;;;;;6.03;5.53;;;11.50;91.20;;;;;;4978430;28;20459;-68
2022/04/20 06:15:54;;;;;;;5.73;5.33;;;12.00;90.00;;;;;;4978064;28;20482;-69
2022/04/20 06:18:20;;;;;;;12.20;6.00;;;12.30;86.90;;;;;;4982289;28;21011;-69
2022/04/20 06:20:47;;;;;;;6.03;5.53;;;12.70;83.80;;;;;;4981880;28;20553;-69
2022/04/20 06:23:15;;;;;;;9.40;5.30;;;12.70;83.10;;;;;;4981782;28;20531;-71
2022/04/20 06:25:42;;;;;;;6.10;5.60;;;12.70;81.40;;;;;;4980323;28;20450;-67
2022/04/20 06:28:09;;;;;;;7.00;5.53;;;12.90;80.40;;;;;;4977513;28;20459;-67
2022/04/20 06:30:36;;;;;;;6.33;5.83;;;13.00;80.30;;;;;;4977220;28;20474;-67
2022/04/20 06:33:04;;;;;;;5.63;5.23;;;13.30;79.60;;;;;;4977272;28;20463;-67
2022/04/20 06:35:30;;;;;;;5.57;5.17;;;13.70;77.20;;;;;;4976999;28;20487;-67
2022/04/20 06:37:57;;;;;;;5.23;4.83;;;13.90;75.10;;;;;;4977659;28;20802;-68
2022/04/20 06:40:24;;;;;;;5.60;5.10;;;14.00;75.10;;;;;;4977083;28;20465;-69
2022/04/20 06:42:51;;;;;;;5.50;5.10;;;14.00;74.60;;;;;;4977008;28;20439;-68
2022/04/20 06:45:18;;;;;;;5.10;4.70;;;14.40;71.80;;;;;;4976686;28;20459;-69
2022/04/20 06:47:44;;;;;;;5.37;4.97;;;14.50;70.90;;;;;;4976556;28;20824;-69
2022/04/20 06:50:13;;;;;;;6.30;5.23;;;14.90;70.80;;;;;;4982234;28;20535;-69
2022/04/20 07:00:53;;;;;;;5.50;5.10;;;15.80;63.80;;;;;;4976357;28;20521;-68
2022/04/20 07:03:19;;;;;;;7.93;5.10;;;15.90;62.20;;;;;;4976681;28;20816;-69
2022/04/20 07:05:47;;;;;;;4.30;4.00;;;16.10;63.40;;;;;;4976566;28;20458;-69
2022/04/20 07:08:14;;;;;;;4.30;4.00;;;16.20;59.80;;;;;;4976762;28;20800;-69
2022/04/20 07:10:41;;;;;;;4.03;3.73;;;16.10;59.20;;;;;;4976524;28;20553;-69
2022/04/20 07:13:08;;;;;;;4.43;3.97;;;15.90;59.20;;;;;;4976138;28;20930;-67
2022/04/20 07:15:34;;;;;;;4.83;4.10;;;15.80;59.10;;;;;;4976135;28;20475;-67
2022/04/20 07:18:01;;;;;;;4.70;4.27;;;15.70;58.40;;;;;;4976046;28;20808;-66
2022/04/20 07:20:28;;;;;;;5.17;4.10;;;15.60;58.40;;;;;;4976074;28;20455;-67
2022/04/20 07:22:56;;;;;;;6.00;4.20;;;15.60;58.90;;;;;;4976061;28;20470;-67
2022/04/20 07:25:25;;;;;;;4.80;4.50;;;15.60;58.50;;;;;;4976501;28;20451;-66
2022/04/20 07:27:52;;;;;;;4.90;4.53;;;15.70;57.90;;;;;;4976676;28;20455;-68
2022/04/20 07:30:19;;;;;;;4.40;4.10;;;15.60;57.90;;;;;;4976190;28;20854;-69
2022/04/20 07:32:47;;;;;;;5.57;5.10;;;15.70;58.40;;;;;;4976052;28;20466;-68
2022/04/20 07:35:13;;;;;;;4.93;4.63;;;15.90;57.90;;;;;;4975843;28;20480;-69
2022/04/20 07:37:40;;;;;;;5.13;4.83;;;16.00;58.50;;;;;;4975920;28;20535;-68
2022/04/20 07:40:09;;;;;;;5.10;4.80;;;16.50;57.80;;;;;;4975899;28;20461;-69
2022/04/20 07:42:36;;;;;;;4.90;4.50;;;16.80;57.10;;;;;;4975840;28;20455;-69
2022/04/20 07:45:03;;;;;;;5.07;4.67;;;17.00;55.90;;;;;;4975755;28;20498;-68
2022/04/20 07:47:30;;;;;;;5.27;4.97;;;17.20;56.40;;;;;;4975469;28;20455;-68
2022/04/20 07:52:45;;;;;;;5.17;4.57;;;17.60;56.80;;;;;;4976068;28;20462;-69
2022/04/20 07:55:14;;;;;;;3.80;3.60;;;18.20;55.70;;;;;;4975646;28;20450;-68
2022/04/20 07:57:42;;;;;;;4.40;4.10;;;18.50;54.50;;;;;;4975682;28;20455;-68
2022/04/20 08:00:11;;;;;;;4.30;4.10;;;18.50;53.20;;;;;;4975558;28;20462;-70
2022/04/20 08:02:38;;;;;;;6.37;4.10;;;18.70;55.20;;;;;;4975475;28;20461;-69
2022/04/20 08:05:05;;;;;;;4.30;4.00;;;18.80;51.70;;;;;;4989022;28;20446;-67
2022/04/20 08:07:32;;;;;;;3.90;3.70;;;18.80;52.70;;;;;;4979466;28;20447;-70
2022/04/20 08:09:59;;;;;;;4.27;3.97;;;18.80;52.20;;;;;;4975316;28;20541;-67
2022/04/20 08:12:29;;;;;;;5.30;4.03;;;19.30;51.00;;;;;;4974930;28;20822;-69
2022/04/20 08:14:56;;;;;;;5.37;4.97;;;19.50;50.60;;;;;;4975123;28;20494;-67
2022/04/20 08:17:23;;;;;;;4.93;4.63;;;19.60;51.30;;;;;;4974822;28;20478;-66
2022/04/20 08:19:49;;;;;;;4.33;4.03;;;20.00;50.80;;;;;;4975347;28;20486;-68
2022/04/20 08:22:16;;;;;;;4.10;3.90;;;20.20;50.10;;;;;;4975272;28;20478;-72
2022/04/20 08:24:45;;;;;;;3.90;3.70;;;20.40;48.20;;;;;;4975645;28;20458;-68
2022/04/20 08:27:12;;;;;;;4.17;3.87;;;20.00;48.00;;;;;;4975848;28;20447;-68
2022/04/20 08:29:40;;;;;;;4.63;4.33;;;20.00;49.20;;;;;;4975114;28;20461;-67
2022/04/20 08:32:07;;;;;;;4.30;4.00;;;19.80;48.00;;;;;;4975204;28;20839;-67
2022/04/20 08:34:34;;;;;;;4.60;4.30;;;20.00;48.80;;;;;;4975759;28;20458;-68
2022/04/20 08:37:01;;;;;;;5.90;4.20;;;20.00;49.30;;;;;;4976392;28;20474;-68
2022/04/20 08:39:28;;;;;;;4.40;4.07;;;20.20;48.50;;;;;;4975364;28;20455;-68
2022/04/20 08:41:56;;;;;;;4.47;4.17;;;20.20;48.40;;;;;;4975242;28;20981;-69
2022/04/20 08:44:27;;;;;;;4.70;4.30;;;20.20;48.10;;;;;;4975410;28;20949;-70
2022/04/20 08:47:00;;;;;;;3.93;3.73;;;20.30;48.10;;;;;;4975533;28;20435;-69
2022/04/20 08:49:26;;;;;;;4.30;3.90;;;20.80;49.60;;;;;;4975333;28;20443;-68
2022/04/20 08:54:38;;;;;;;3.90;3.60;;;21.10;48.60;;;;;;4975395;28;20421;-69
2022/04/20 08:57:18;;;;;;;4.13;3.83;;;21.40;49.20;;;;;;4975240;28;20514;-69
2022/04/20 08:59:47;;;;;;;5.23;3.90;;;21.50;47.20;;;;;;4975264;28;20443;-69
2022/04/20 09:02:15;;;;;;;3.47;3.17;;;21.70;47.00;;;;;;4978947;28;20478;-69
2022/04/20 09:04:42;;;;;;;3.03;2.93;;;21.80;46.90;;;;;;4978717;28;20981;-69
2022/04/20 09:07:10;;;;;;;4.00;3.70;;;21.90;44.50;;;;;;4978744;28;20554;-69
2022/04/20 09:09:38;;;;;;;5.43;3.67;;;21.80;46.20;;;;;;4978904;28;20466;-69
2022/04/20 09:12:10;;;;;;;4.80;3.67;;;21.90;46.20;;;;;;4978671;28;20474;-68
2022/04/20 09:14:38;;;;;;;3.40;3.20;;;21.90;45.50;;;;;;4978728;28;20439;-72
2022/04/20 09:17:05;;;;;;;3.33;3.03;;;22.10;44.70;;;;;;4979118;28;20479;-67
2022/04/20 09:19:33;;;;;;;3.70;3.50;;;22.70;46.40;;;;;;4979173;28;20451;-67
2022/04/20 09:22:00;;;;;;;3.60;3.30;;;22.70;45.00;;;;;;4978944;28;20482;-67
2022/04/20 09:24:26;;;;;;;4.07;3.77;;;22.80;43.90;;;;;;4978748;28;20969;-67
2022/04/20 09:26:54;;;;;;;4.20;3.10;;;22.90;44.50;;;;;;4978704;28;20498;-68
2022/04/20 09:29:22;;;;;;;4.07;3.60;;;22.80;42.70;;;;;;4978807;28;20458;-67
2022/04/20 09:31:51;;;;;;;3.87;3.50;;;23.10;42.40;;;;;;4978763;28;20478;-68
2022/04/20 09:34:53;;;;;;;4.67;3.57;;;23.70;41.90;;;;;;4978725;28;20461;-67
2022/04/20 09:37:22;;;;;;;3.90;3.60;;;24.20;43.00;;;;;;4978420;28;20493;-67
2022/04/20 09:39:50;;;;;;;3.47;3.27;;;24.30;42.90;;;;;;4978459;28;20492;-67
2022/04/20 09:42:18;;;;;;;3.60;3.40;;;23.60;42.10;;;;;;4978687;28;20885;-68
2022/04/20 09:44:54;;;;;;;3.50;3.30;;;23.60;42.00;;;;;;4978312;28;20996;-67
2022/04/20 09:50:09;;;;;;;3.57;3.33;;;23.50;40.80;;;;;;4978764;28;20422;-68
2022/04/20 09:52:37;;;;;;;3.80;3.60;;;23.10;41.70;;;;;;4984676;28;20474;-67
2022/04/20 09:55:06;;;;;;;2.83;2.73;;;23.10;42.90;;;;;;4985011;28;20455;-68
2022/04/20 09:57:33;;;;;;;3.50;3.20;;;23.80;41.20;;;;;;4978772;28;20478;-67
2022/04/20 10:00:02;;;;;;;3.27;3.10;;;24.00;40.90;;;;;;4978224;28;20549;-67
2022/04/20 10:02:30;;;;;;;3.53;3.33;;;24.40;40.10;;;;;;4977914;28;20903;-67
2022/04/20 10:04:57;;;;;;;3.10;3.00;;;24.30;39.20;;;;;;4978053;28;20467;-68
2022/04/20 10:07:25;;;;;;;3.60;3.40;;;24.00;40.80;;;;;;4978805;28;20451;-68
2022/04/20 10:09:53;;;;;;;2.87;2.67;;;24.30;39.80;;;;;;4977902;28;20455;-68
2022/04/20 10:12:20;;;;;;;2.87;2.67;;;24.30;40.80;;;;;;4977270;28;20486;-68
2022/04/20 10:17:44;;;;;;;3.47;3.00;;;23.90;40.00;;;;;;4978145;28;20972;-68
2022/04/20 10:20:14;;;;;;;2.80;2.60;;;23.40;39.80;;;;;;4977631;28;20525;-68
2022/04/20 10:22:42;;;;;;;9.03;3.70;;;24.00;38.60;;;;;;4977224;28;20873;-68
2022/04/20 10:25:10;;;;;;;3.93;3.63;;;24.30;39.70;;;;;;4977406;28;20463;-68
2022/04/20 10:27:49;;;;;;;3.93;2.97;;;24.30;37.70;;;;;;4976960;28;20978;-69
2022/04/20 10:30:21;;;;;;;5.30;3.40;;;24.60;37.30;;;;;;4977427;28;20443;-68
2022/04/20 10:32:59;;;;;;;11.00;3.50;;;25.00;40.10;;;;;;4977634;28;20475;-68
2022/04/20 10:35:26;;;;;;;3.00;2.77;;;24.90;36.70;;;;;;4977450;28;20500;-68
2022/04/20 10:41:02;;;;;;;3.60;3.17;;;25.20;40.40;;;;;;5104751;27;20344;-69
2022/04/20 10:43:30;;;;;;;3.07;2.77;;;25.60;40.40;;;;;;5071613;28;20529;-71
2022/04/20 10:46:09;;;;;;;2.83;2.63;;;25.40;39.30;;;;;;5071435;28;20450;-71
2022/04/20 10:48:55;;;;;;;3.50;2.90;;;25.50;39.40;;;;;;5071426;28;20431;-72
2022/04/20 10:51:23;;;;;;;3.40;3.10;;;25.20;36.40;;;;;;5070904;28;20506;-71
2022/04/20 10:53:52;;;;;;;2.77;2.57;;;24.90;38.30;;;;;;5070968;28;20489;-71
2022/04/20 10:56:21;;;;;;;3.43;3.23;;;25.30;38.30;;;;;;5070694;28;20457;-66
2022/04/20 10:58:53;;;;;;;5.90;3.50;;;25.30;36.20;;;;;;5070309;28;21011;-66
2022/04/20 11:01:20;;;;;;;2.50;2.30;;;25.10;38.00;;;;;;5069855;28;20621;-67
2022/04/20 11:04:03;;;;;;;4.87;3.27;;;24.90;39.30;;;;;;5070880;28;20200;-68
2022/04/20 11:06:50;;;;;;;2.75;2.55;;;24.40;39.60;;;;;;5070348;28;20469;-68
2022/04/20 11:09:56;;;;;;;4.30;2.93;;;24.10;37.80;;;;;;5070254;28;20694;-68
2022/04/20 11:18:39;;;;;;;3.33;3.10;;;22.50;40.40;;;;;;5071742;28;20782;-69
2022/04/20 11:21:17;;;;;;;3.17;2.97;;;22.10;39.10;;;;;;5078847;28;20505;-69
2022/04/20 11:23:57;;;;;;;2.53;2.43;;;21.90;37.60;;;;;;5073996;28;20450;-68
2022/04/20 11:26:28;;;;;;;3.13;2.93;;;21.70;39.70;;;;;;5080360;28;20464;-68
2022/04/20 11:28:57;;;;;;;3.37;3.03;;;21.80;41.40;;;;;;5076587;28;20439;-68
2022/04/20 11:31:24;;;;;;;2.93;2.73;;;21.90;41.70;;;;;;5072860;28;20484;-68
2022/04/20 11:33:53;;;;;;;3.37;3.17;;;21.90;40.40;;;;;;5072548;28;20450;-69
2022/04/20 11:36:20;;;;;;;3.93;3.63;;;21.80;41.60;;;;;;5072219;28;20472;-69
2022/04/20 11:38:48;;;;;;;4.00;3.73;;;21.50;41.20;;;;;;5071820;28;20466;-68
2022/04/20 11:41:16;;;;;;;3.40;3.10;;;21.10;41.90;;;;;;5071902;28;20528;-69
2022/04/20 11:43:44;;;;;;;3.80;3.50;;;20.80;40.40;;;;;;5071253;28;20508;-68
2022/04/20 11:46:13;;;;;;;3.93;3.47;;;20.50;43.70;;;;;;5070175;28;20450;-69
2022/04/20 11:48:50;;;;;;;5.47;3.83;;;20.40;42.40;;;;;;5070209;28;20446;-66
2022/04/20 11:51:21;;;;;;;4.60;3.90;;;20.20;49.50;;;;;;5061253;28;20509;-66
2022/04/20 11:53:48;;;;;;;9.20;5.33;;;19.80;45.40;;;;;;5057179;28;20431;-66
2022/04/20 11:56:15;;;;;;;4.47;4.10;;;19.90;46.60;;;;;;5057504;28;20874;-66
2022/04/20 11:58:48;;;;;;;4.20;3.90;;;19.80;48.20;;;;;;5056813;28;20918;-67
2022/04/20 12:01:16;;;;;;;4.27;3.80;;;19.50;45.50;;;;;;5055895;28;20529;-67
2022/04/20 12:03:45;;;;;;;4.23;3.93;;;19.60;46.20;;;;;;5057010;28;20455;-66
2022/04/20 12:06:12;;;;;;;3.87;3.67;;;19.80;46.10;;;;;;5056313;28;20500;-65
2022/04/20 12:08:41;;;;;;;4.50;4.10;;;19.70;43.50;;;;;;5056396;28;20483;-66
2022/04/20 12:11:09;;;;;;;4.13;3.80;;;19.60;44.90;;;;;;5056783;28;20672;-65
2022/04/20 12:13:36;;;;;;;4.10;3.90;;;19.60;45.40;;;;;;5056369;28;20454;-65
2022/04/20 12:16:04;;;;;;;4.50;4.20;;;19.50;45.90;;;;;;5056244;28;20963;-66
2022/04/20 12:18:35;;;;;;;4.00;3.70;;;19.50;47.70;;;;;;5056600;28;20996;-65
2022/04/20 12:21:03;;;;;;;3.87;3.53;;;19.60;47.80;;;;;;5057258;28;20490;-67
2022/04/20 12:23:34;;;;;;;4.00;3.70;;;19.90;46.50;;;;;;5057531;28;20451;-67
2022/04/20 12:26:04;;;;;;;6.37;3.73;;;20.10;45.70;;;;;;5057448;28;20439;-67
2022/04/20 12:28:43;;;;;;;3.90;3.70;;;20.00;46.80;;;;;;5057360;28;20953;-67
2022/04/20 12:31:12;;;;;;;4.30;4.00;;;20.20;48.20;;;;;;5056535;28;20467;-67
2022/04/20 12:33:41;;;;;;;5.43;3.97;;;20.00;45.90;;;;;;5056759;28;20479;-67
2022/04/20 12:36:09;;;;;;;4.17;3.83;;;20.20;47.20;;;;;;5056285;28;20447;-67
2022/04/20 12:38:44;;;;;;;4.20;3.90;;;20.30;44.40;;;;;;5056643;28;20461;-67
2022/04/20 12:41:43;;;;;;;4.23;3.93;;;20.20;47.10;;;;;;5056104;28;20478;-67
2022/04/20 12:44:52;;;;;;;3.70;3.50;;;19.90;44.00;;;;;;5053428;28;20451;-67
2022/04/20 12:47:39;;;;;;;3.00;2.90;;;19.80;44.70;;;;;;5055697;28;20494;-66
2022/04/20 12:50:18;;;;;;;3.40;3.10;;;19.30;45.30;;;;;;5055475;28;20471;-67
2022/04/20 12:52:59;;;;;;;4.00;3.63;;;19.40;44.10;;;;;;5055553;28;20444;-67
2022/04/20 13:04:12;;;;;;;3.67;3.27;;;19.80;48.90;;;;;;5054775;28;20419;-67
2022/04/20 13:06:40;;;;;;;3.00;2.90;;;19.70;44.80;;;;;;5054853;28;20504;-67
2022/04/20 13:09:07;;;;;;;9.20;3.40;;;19.60;46.90;;;;;;5054977;28;20455;-67
2022/04/20 13:11:34;;;;;;;3.27;3.00;;;19.50;45.90;;;;;;5054963;28;20490;-65
2022/04/20 13:14:01;;;;;;;4.13;3.20;;;19.60;46.80;;;;;;5054682;28;20455;-66
2022/04/20 13:16:28;;;;;;;4.97;2.97;;;19.50;48.40;;;;;;5054805;28;20466;-67
2022/04/20 13:18:54;;;;;;;3.17;2.93;;;19.50;50.00;;;;;;5054730;28;20471;-66
2022/04/20 13:21:21;;;;;;;3.13;2.93;;;19.80;49.70;;;;;;5054401;28;20989;-67
2022/04/20 13:23:52;;;;;;;2.83;2.63;;;20.00;45.00;;;;;;5054684;28;20461;-67
2022/04/20 13:29:03;;;;;;;3.30;3.10;;;20.10;45.80;;;;;;5055013;28;20779;-67
2022/04/20 13:31:30;;;;;;;5.00;2.70;;;20.00;43.00;;;;;;5054448;28;20479;-67
2022/04/20 13:33:57;;;;;;;3.23;2.67;;;19.70;42.50;;;;;;5054655;28;20451;-66
2022/04/20 13:36:24;;;;;;;3.47;3.03;;;19.80;46.00;;;;;;5054563;28;20435;-66
2022/04/20 13:38:52;;;;;;;3.30;2.90;;;19.90;48.60;;;;;;5054150;28;20474;-72
2022/04/20 13:41:19;;;;;;;2.77;2.57;;;20.10;45.80;;;;;;5054073;28;21012;-67
2022/04/20 13:43:46;;;;;;;3.30;2.83;;;20.30;48.40;;;;;;5054579;28;20455;-67
2022/04/20 13:46:12;;;;;;;3.93;2.90;;;20.40;47.30;;;;;;5054380;28;20868;-66
2022/04/20 13:48:40;;;;;;;2.50;2.40;;;20.50;45.10;;;;;;5054380;28;20828;-66
2022/04/20 13:51:07;;;;;;;3.00;2.80;;;20.50;44.60;;;;;;5054193;28;20833;-66
2022/04/20 13:53:34;;;;;;;3.00;2.80;;;20.10;43.60;;;;;;5054479;28;20459;-66
2022/04/20 13:56:02;;;;;;;2.90;2.80;;;19.90;45.90;;;;;;5054330;28;20459;-65
2022/04/20 13:58:30;;;;;;;5.40;3.00;;;19.90;42.80;;;;;;5054332;28;20451;-66
2022/04/20 14:00:57;;;;;;;4.47;3.20;;;19.90;43.30;;;;;;5053964;28;20856;-66
2022/04/20 14:03:25;;;;;;;3.00;2.80;;;19.80;40.50;;;;;;5054108;28;20818;-66
2022/04/20 14:05:51;;;;;;;3.60;3.30;;;19.60;42.60;;;;;;5053801;28;20459;-66
2022/04/20 14:08:18;;;;;;;3.00;2.70;;;19.70;43.90;;;;;;5054087;28;20455;-67
2022/04/20 14:10:45;;;;;;;2.63;2.43;;;19.70;42.40;;;;;;5053315;28;20474;-66
2022/04/20 14:13:13;;;;;;;3.50;2.73;;;19.60;44.30;;;;;;5053301;28;20451;-66
2022/04/20 14:15:41;;;;;;;3.60;3.40;;;19.40;44.80;;;;;;5053867;28;20452;-66
2022/04/20 14:18:07;;;;;;;4.00;3.77;;;19.40;44.50;;;;;;5053915;28;20458;-66
2022/04/20 14:20:35;;;;;;;3.23;2.93;;;19.20;43.50;;;;;;5053683;28;20482;-66
2022/04/20 14:23:01;;;;;;;3.20;3.00;;;19.10;45.10;;;;;;5053855;28;20483;-66
2022/04/20 14:33:42;;;;;;;3.00;2.80;;;19.30;44.20;;;;;;5053755;28;20461;-67
2022/04/20 14:36:08;;;;;;;3.60;3.20;;;19.30;47.90;;;;;;5053454;28;20954;-67
2022/04/20 14:38:35;;;;;;;3.60;3.30;;;19.60;49.10;;;;;;5053447;28;20455;-67
2022/04/20 14:41:02;;;;;;;12.63;3.40;;;19.70;44.40;;;;;;5053705;28;20479;-66
2022/04/20 14:43:30;;;;;;;4.20;3.93;;;19.60;43.20;;;;;;5054540;28;20479;-66
2022/04/20 14:45:57;;;;;;;4.47;4.07;;;19.60;45.30;;;;;;5053382;28;20452;-66
2022/04/20 14:48:24;;;;;;;3.60;3.40;;;19.60;44.80;;;;;;5053588;28;20451;-66
2022/04/20 14:50:51;;;;;;;3.50;3.30;;;19.60;46.10;;;;;;5053543;28;20482;-66
2022/04/20 14:53:18;;;;;;;3.30;3.10;;;19.60;44.60;;;;;;5053578;28;20451;-66
2022/04/20 14:55:45;;;;;;;3.83;3.63;;;19.50;43.60;;;;;;5060287;28;20519;-66
2022/04/20 14:58:12;;;;;;;3.63;3.43;;;19.50;43.40;;;;;;5071079;28;20778;-66
2022/04/20 15:00:41;;;;;;;3.47;3.27;;;19.60;45.00;;;;;;5061946;28;20479;-66
2022/04/20 15:03:09;;;;;;;4.80;4.17;;;19.50;45.50;;;;;;5053414;28;20450;-66
2022/04/20 15:05:36;;;;;;;4.00;3.70;;;19.60;43.70;;;;;;5053408;28;20451;-68
2022/04/20 15:08:03;;;;;;;4.07;3.87;;;19.60;44.50;;;;;;5053113;28;20815;-68
2022/04/20 15:10:32;;;;;;;3.90;3.67;;;19.60;42.80;;;;;;5053144;28;20447;-67
2022/04/20 15:12:59;;;;;;;5.93;3.30;;;19.40;43.20;;;;;;5053282;28;20891;-67
2022/04/20 15:15:25;;;;;;;8.83;3.50;;;19.40;43.80;;;;;;5053402;28;20451;-67
2022/04/20 15:17:54;;;;;;;3.70;3.40;;;19.30;42.60;;;;;;5053248;28;20451;-67
2022/04/20 15:20:20;;;;;;;4.47;4.17;;;19.10;44.60;;;;;;5053087;28;20514;-67
2022/04/20 15:22:47;;;;;;;4.10;3.80;;;19.10;44.10;;;;;;5053165;28;20455;-67
2022/04/20 15:25:14;;;;;;;3.37;3.20;;;19.30;43.20;;;;;;5052914;28;20451;-67
2022/04/20 15:27:42;;;;;;;4.60;4.30;;;19.40;44.40;;;;;;5056739;28;20888;-67
2022/04/20 15:30:10;;;;;;;4.50;4.20;;;19.20;43.80;;;;;;5056609;28;20457;-67
2022/04/20 15:32:39;;;;;;;4.53;4.23;;;18.90;43.10;;;;;;5056716;28;20475;-67
2022/04/20 15:35:09;;;;;;;4.53;4.10;;;18.80;43.30;;;;;;5056541;28;20889;-67
2022/04/20 15:37:37;;;;;;;4.03;3.80;;;18.70;46.10;;;;;;5056944;28;20514;-67
2022/04/20 15:40:05;;;;;;;4.40;4.10;;;18.60;45.00;;;;;;5056194;28;20579;-67
2022/04/20 15:42:32;;;;;;;4.90;3.70;;;18.70;44.70;;;;;;5056915;28;20533;-67
2022/04/20 15:44:59;;;;;;;4.47;3.87;;;18.80;46.00;;;;;;5056847;28;20490;-67
2022/04/20 15:47:26;;;;;;;4.10;3.60;;;19.00;45.20;;;;;;5056878;28;20458;-67
2022/04/20 15:49:55;;;;;;;4.83;4.33;;;19.10;44.50;;;;;;5056375;28;20459;-67
2022/04/20 15:52:26;;;;;;;8.93;4.00;;;19.10;44.30;;;;;;5056508;28;20527;-68
2022/04/20 16:00:31;;;;;;;4.70;4.30;;;18.60;44.70;;;;;;5040563;28;20515;-67
2022/04/20 16:02:59;;;;;;;5.50;4.73;;;18.60;45.50;;;;;;5051164;28;20447;-67
2022/04/20 16:05:26;;;;;;;5.83;4.40;;;18.60;45.30;;;;;;5056143;28;20570;-67
2022/04/20 16:07:54;;;;;;;5.43;4.93;;;18.40;45.20;;;;;;5055808;28;20981;-67
2022/04/20 16:10:22;;;;;;;5.70;5.20;;;18.20;45.20;;;;;;5055944;28;20517;-67
2022/04/20 16:12:49;;;;;;;4.60;4.20;;;18.20;45.10;;;;;;5055840;28;20487;-67
2022/04/20 16:15:16;;;;;;;5.40;4.90;;;18.20;45.50;;;;;;5056856;28;20447;-67
2022/04/20 16:17:44;;;;;;;4.53;4.13;;;18.20;45.60;;;;;;5056437;28;20812;-67
2022/04/20 16:20:11;;;;;;;5.50;4.30;;;18.10;44.30;;;;;;5055785;28;20542;-67
2022/04/20 16:22:38;;;;;;;3.70;3.50;;;17.90;44.40;;;;;;5055731;28;20502;-67
2022/04/20 16:25:08;;;;;;;4.57;4.27;;;17.80;45.10;;;;;;5055421;28;20938;-67
2022/04/20 16:27:35;;;;;;;4.07;3.70;;;17.70;45.10;;;;;;5056704;28;20778;-67
2022/04/20 16:30:03;;;;;;;5.33;4.67;;;17.60;45.10;;;;;;5055432;28;20459;-67
2022/04/20 16:32:30;;;;;;;5.27;4.97;;;17.40;46.00;;;;;;5055049;28;20472;-67
2022/04/20 16:34:57;;;;;;;5.67;5.27;;;17.30;45.10;;;;;;5055509;28;20455;-67
2022/04/20 16:37:25;;;;;;;5.97;5.37;;;17.20;45.70;;;;;;5055371;28;20478;-67
2022/04/20 16:39:52;;;;;;;5.80;5.23;;;17.10;46.60;;;;;;5055019;28;20467;-67
2022/04/20 16:42:20;;;;;;;8.40;5.50;;;17.00;45.20;;;;;;5055454;28;20479;-67
2022/04/20 16:44:47;;;;;;;5.33;4.93;;;16.90;45.70;;;;;;5055304;28;20462;-67
2022/04/20 16:47:14;;;;;;;5.33;4.93;;;16.90;44.80;;;;;;5055506;28;20528;-67
2022/04/20 16:49:41;;;;;;;5.50;5.10;;;16.70;45.30;;;;;;5055600;28;20466;-67
2022/04/20 16:52:09;;;;;;;5.40;4.90;;;16.80;45.60;;;;;;5055074;28;20857;-67
2022/04/20 16:54:37;;;;;;;5.37;4.97;;;16.60;46.80;;;;;;5055123;28;21008;-68
2022/04/20 16:57:04;;;;;;;5.30;4.43;;;16.60;46.50;;;;;;5055159;28;20860;-66
2022/04/20 16:59:32;;;;;;;5.73;4.77;;;16.60;46.20;;;;;;5055199;28;20440;-67
2022/04/20 17:01:59;;;;;;;4.73;4.20;;;16.60;46.20;;;;;;5055182;28;20483;-65
2022/04/20 17:04:26;;;;;;;4.23;4.03;;;16.50;45.40;;;;;;5055115;28;20455;-66
2022/04/20 17:06:53;;;;;;;5.37;4.63;;;16.40;45.30;;;;;;5055115;28;20455;-66
2022/04/20 17:09:20;;;;;;;4.30;3.90;;;16.40;45.80;;;;;;5055195;28;20462;-67
2022/04/20 17:11:47;;;;;;;4.93;4.20;;;16.30;46.20;;;;;;5055078;28;20467;-66
2022/04/20 17:14:14;;;;;;;14.67;7.20;;;16.30;46.00;;;;;;5054956;28;20528;-66
2022/04/20 17:16:42;;;;;;;4.83;4.53;;;16.30;47.40;;;;;;5055097;28;20459;-66
2022/04/20 17:19:09;;;;;;;7.07;4.70;;;16.20;46.60;;;;;;5054998;28;20900;-66
2022/04/20 17:27:04;;;;;;;4.63;4.33;;;16.10;47.10;;;;;;5054901;28;20414;-67
2022/04/20 17:29:31;;;;;;;8.80;4.50;;;16.10;47.20;;;;;;5054813;28;20447;-67
2022/04/20 17:32:00;;;;;;;4.27;4.00;;;16.10;47.10;;;;;;5054605;28;20482;-67
2022/04/20 17:34:27;;;;;;;4.50;4.10;;;16.10;47.90;;;;;;5054744;28;20934;-67
2022/04/20 17:36:53;;;;;;;5.73;5.10;;;16.00;47.10;;;;;;5054629;28;20459;-67
2022/04/20 17:39:22;;;;;;;7.47;4.70;;;15.90;47.00;;;;;;5054172;28;20465;-67
2022/04/20 17:41:51;;;;;;;5.17;4.67;;;15.80;46.80;;;;;;5054445;28;20339;-67
2022/04/20 17:44:18;;;;;;;8.60;6.07;;;15.80;46.90;;;;;;5054615;28;20455;-67
2022/04/20 17:46:47;;;;;;;6.37;5.77;;;15.70;51.30;;;;;;5054382;28;20455;-67
2022/04/20 17:49:16;;;;;;;6.10;5.50;;;15.70;48.60;;;;;;5053892;28;20452;-67
2022/04/20 17:51:45;;;;;;;6.50;5.97;;;15.70;48.00;;;;;;5054494;28;20467;-67
2022/04/20 17:54:13;;;;;;;6.00;5.60;;;15.60;47.20;;;;;;5054332;28;20470;-67
2022/04/20 17:56:40;;;;;;;5.83;5.33;;;15.50;46.40;;;;;;5054343;28;20455;-67
2022/04/20 17:59:07;;;;;;;8.20;5.60;;;15.40;46.70;;;;;;5065375;28;20451;-67
2022/04/20 18:01:38;;;;;;;8.30;5.53;;;15.30;46.30;;;;;;5061521;28;20483;-67
2022/04/20 18:04:06;;;;;;;6.20;5.70;;;15.20;46.40;;;;;;5054387;28;20439;-67